Time;durP1;ratioP1;P1;durP2;ratioP2;P2;SDS_P1;SDS_P2;PMS_P1;PMS_P2;Temp;Humidity;BMP_temperature;BMP_pressure;BME280_temperature;BME280_humidity;BME280_pressure;Samples;Min_cycle;Max_cycle;Signal;HPM_P1;HPM_P2
2024/02/27 00:06:58;;;;;;;21.08;4.30;;;0.80;99.90;;;;;;20873780;28;20565;-43
2024/02/27 00:17:00;;;;;;;0.00;0.00;;;0.80;99.90;;;;;;20873682;28;20158;-44
2024/02/27 00:27:02;;;;;;;36.55;17.05;;;0.90;99.90;;;;;;20877934;28;20303;-44
2024/02/27 00:37:07;;;;;;;0.00;0.00;;;0.90;99.90;;;;;;20876176;28;21156;-45
2024/02/27 00:47:09;;;;;;;73.35;15.10;;;0.90;99.90;;;;;;20571353;28;20094;-46
2024/02/27 00:57:11;;;;;;;5.15;0.85;;;0.90;99.90;;;;;;20537269;28;21165;-54
2024/02/27 01:07:13;;;;;;;1.20;0.00;;;0.70;99.90;;;;;;20578981;28;20094;-46
2024/02/27 01:17:15;;;;;;;0.85;0.00;;;0.90;99.90;;;;;;20798632;28;20239;-43
2024/02/27 01:27:16;;;;;;;0.17;0.03;;;0.80;99.90;;;;;;20869672;28;20126;-44
2024/02/27 01:37:18;;;;;;;0.00;0.00;;;0.80;99.90;;;;;;20869397;28;20172;-44
2024/02/27 01:47:23;;;;;;;2.20;2.05;;;0.80;99.90;;;;;;20870916;28;20245;-43
2024/02/27 01:57:25;;;;;;;0.00;0.00;;;0.90;99.90;;;;;;20865590;28;21855;-53
2024/02/27 02:07:27;;;;;;;0.05;0.05;;;0.90;99.90;;;;;;20867588;28;21160;-45
2024/02/27 02:17:33;;;;;;;0.00;0.00;;;0.80;99.90;;;;;;20870193;28;20155;-44
2024/02/27 02:27:39;;;;;;;0.00;0.00;;;0.80;99.90;;;;;;20865758;28;20553;-46
2024/02/27 02:37:48;;;;;;;0.00;0.00;;;0.80;99.90;;;;;;20871100;28;20174;-46
2024/02/27 02:47:50;;;;;;;0.00;0.00;;;0.80;99.90;;;;;;20885772;28;21195;-45
2024/02/27 02:57:52;;;;;;;0.00;0.00;;;0.90;99.90;;;;;;20885951;28;20067;-43
2024/02/27 03:07:54;;;;;;;0.00;0.00;;;0.90;99.90;;;;;;20882376;28;20192;-46
2024/02/27 03:17:56;;;;;;;0.25;0.25;;;0.90;99.90;;;;;;20882129;28;20134;-42
2024/02/27 03:27:58;;;;;;;0.98;0.00;;;0.80;99.90;;;;;;20880476;28;20276;-41
2024/02/27 03:38:00;;;;;;;3.63;3.08;;;0.80;99.90;;;;;;20880885;28;20165;-41
2024/02/27 03:48:02;;;;;;;0.00;0.00;;;0.80;99.90;;;;;;20880241;28;20131;-40
2024/02/27 03:58:04;;;;;;;8.13;7.40;;;1.10;99.90;;;;;;20879401;28;20090;-39
2024/02/27 04:08:08;;;;;;;0.00;0.00;;;1.00;99.90;;;;;;20878933;28;20122;-40
2024/02/27 04:18:10;;;;;;;10.40;3.50;;;0.80;99.90;;;;;;20858736;28;20059;-41
2024/02/27 04:28:13;;;;;;;0.00;0.00;;;0.80;99.90;;;;;;20878450;28;20170;-40
2024/02/27 04:38:15;;;;;;;0.17;0.00;;;0.90;99.90;;;;;;20854559;28;21249;-45
2024/02/27 04:48:17;;;;;;;0.05;0.05;;;1.00;99.90;;;;;;20855050;28;20122;-44
2024/02/27 04:58:19;;;;;;;1.48;1.38;;;1.00;99.90;;;;;;20874803;28;20670;-41
2024/02/27 05:08:21;;;;;;;0.22;0.22;;;1.10;99.90;;;;;;20870341;28;20943;-41
2024/02/27 05:18:22;;;;;;;44.08;6.03;;;1.10;99.90;;;;;;20876524;28;20718;-42
2024/02/27 05:28:25;;;;;;;0.00;0.00;;;1.00;99.90;;;;;;20867539;28;20130;-43
2024/02/27 05:38:26;;;;;;;1.25;1.25;;;1.10;99.90;;;;;;20873045;28;21157;-42
2024/02/27 05:48:28;;;;;;;0.00;0.00;;;1.10;99.90;;;;;;20870028;28;20135;-43
2024/02/27 05:58:30;;;;;;;1.20;0.20;;;1.20;99.90;;;;;;20871155;28;20067;-45
2024/02/27 06:08:32;;;;;;;0.45;0.45;;;1.30;99.90;;;;;;20869399;28;20650;-46
2024/02/27 06:18:37;;;;;;;182.50;21.67;;;1.40;99.90;;;;;;20883286;28;20116;-45
2024/02/27 06:28:39;;;;;;;0.00;0.00;;;1.70;99.90;;;;;;20881363;28;21369;-44
2024/02/27 06:38:41;;;;;;;0.08;0.00;;;2.10;99.90;;;;;;20884585;28;21231;-48
2024/02/27 06:48:43;;;;;;;0.65;0.63;;;2.70;99.90;;;;;;20883449;28;20144;-46
2024/02/27 06:58:46;;;;;;;2.38;2.22;;;2.30;99.90;;;;;;20879301;28;20155;-42
2024/02/27 07:08:51;;;;;;;12.65;4.78;;;2.20;99.90;;;;;;20878788;28;20096;-42
2024/02/27 07:18:53;;;;;;;0.00;0.00;;;2.10;99.90;;;;;;20878128;28;20991;-43
2024/02/27 07:28:55;;;;;;;30.70;14.00;;;2.30;99.90;;;;;;20879251;28;20078;-42
2024/02/27 07:39:00;;;;;;;0.52;0.00;;;2.50;99.90;;;;;;20879146;28;20134;-47
2024/02/27 07:49:02;;;;;;;0.43;0.10;;;2.50;99.90;;;;;;20856281;28;20166;-42
2024/02/27 07:59:04;;;;;;;0.00;0.00;;;2.30;99.90;;;;;;20873108;28;20165;-43
2024/02/27 08:09:06;;;;;;;25.05;5.70;;;2.30;99.90;;;;;;20872877;28;20797;-43
2024/02/27 08:19:11;;;;;;;0.00;0.00;;;2.60;99.90;;;;;;20873342;28;20150;-45
2024/02/27 08:29:13;;;;;;;0.00;0.00;;;2.50;99.90;;;;;;20869487;28;20788;-43
2024/02/27 08:39:15;;;;;;;0.00;0.00;;;2.10;99.90;;;;;;20867561;28;20196;-43
2024/02/27 08:49:23;;;;;;;0.00;0.00;;;2.10;99.90;;;;;;20847756;28;20682;-44
2024/02/27 08:59:26;;;;;;;0.00;0.00;;;2.20;99.90;;;;;;20869129;28;20149;-47
2024/02/27 09:09:28;;;;;;;0.00;0.00;;;2.30;99.90;;;;;;20843986;28;20039;-44
2024/02/27 09:19:30;;;;;;;0.00;0.00;;;2.20;99.90;;;;;;20863762;28;20291;-46
2024/02/27 09:29:32;;;;;;;2.08;0.00;;;2.30;99.90;;;;;;20847573;28;20271;-46
2024/02/27 09:39:34;;;;;;;0.32;0.32;;;2.40;99.90;;;;;;20867856;28;20075;-45
2024/02/27 09:49:41;;;;;;;51.55;15.00;;;2.30;99.90;;;;;;20863954;28;21160;-45
2024/02/27 09:59:44;;;;;;;12.48;2.55;;;2.20;99.90;;;;;;20862824;28;21819;-44
2024/02/27 10:09:46;;;;;;;0.68;0.45;;;2.00;99.90;;;;;;20863605;28;20718;-46
2024/02/27 10:19:49;;;;;;;0.00;0.00;;;2.10;99.90;;;;;;20861554;28;20118;-45
2024/02/27 10:29:50;;;;;;;1.90;1.75;;;2.30;99.90;;;;;;20867112;28;21174;-45
2024/02/27 10:39:56;;;;;;;0.00;0.00;;;2.40;99.90;;;;;;20865363;28;20487;-45
2024/02/27 10:50:09;;;;;;;0.00;0.00;;;2.40;99.90;;;;;;20862911;28;20860;-45
2024/02/27 11:00:11;;;;;;;20.17;7.45;;;2.60;99.90;;;;;;20864654;28;21167;-49
2024/02/27 11:10:18;;;;;;;0.00;0.00;;;2.70;99.90;;;;;;20873503;28;20126;-47
2024/02/27 11:20:20;;;;;;;0.30;0.30;;;2.60;99.90;;;;;;20875944;28;20075;-46
2024/02/27 11:30:24;;;;;;;0.00;0.00;;;2.50;99.90;;;;;;20852326;28;20149;-49
2024/02/27 11:40:52;;;;;;;0.00;0.00;;;2.70;99.90;;;;;;20874964;28;20479;-47
2024/02/27 11:50:54;;;;;;;0.15;0.00;;;2.90;99.90;;;;;;20875589;28;21712;-50
2024/02/27 12:01:03;;;;;;;0.00;0.00;;;2.90;99.90;;;;;;20875816;28;20779;-48
2024/02/27 12:11:07;;;;;;;0.98;0.00;;;2.90;99.90;;;;;;20871755;28;20797;-43
2024/02/27 12:21:09;;;;;;;0.00;0.00;;;3.00;99.90;;;;;;20874722;28;20768;-44
2024/02/27 12:31:11;;;;;;;0.00;0.00;;;3.10;99.90;;;;;;20870292;28;21486;-45
2024/02/27 12:41:13;;;;;;;0.00;0.00;;;3.00;99.90;;;;;;20866457;28;20162;-44
2024/02/27 12:51:15;;;;;;;0.00;0.00;;;2.90;99.90;;;;;;20869967;28;21097;-53
2024/02/27 13:01:17;;;;;;;1.45;0.00;;;2.70;99.90;;;;;;20867006;28;20118;-49
2024/02/27 13:11:20;;;;;;;0.00;0.00;;;2.40;99.90;;;;;;20867314;28;20122;-44
2024/02/27 13:21:21;;;;;;;0.00;0.00;;;2.40;99.90;;;;;;20868324;28;20119;-45
2024/02/27 13:31:24;;;;;;;0.10;0.00;;;2.30;99.90;;;;;;20862231;28;20200;-44
2024/02/27 13:41:26;;;;;;;0.20;0.20;;;2.40;99.90;;;;;;20864497;28;20142;-47
2024/02/27 13:51:29;;;;;;;0.00;0.00;;;2.20;99.90;;;;;;20862377;28;20130;-48
2024/02/27 14:01:33;;;;;;;0.00;0.00;;;2.40;99.90;;;;;;20862494;28;20469;-47
2024/02/27 14:11:35;;;;;;;0.03;0.00;;;2.30;99.90;;;;;;20866060;28;21250;-52
2024/02/27 14:21:37;;;;;;;4.95;0.17;;;2.30;99.90;;;;;;20861381;28;20650;-49
2024/02/27 14:31:39;;;;;;;9.27;4.85;;;2.40;99.90;;;;;;20865209;28;20158;-48
2024/02/27 14:41:41;;;;;;;111.25;16.98;;;2.30;99.90;;;;;;20873445;28;20914;-49
2024/02/27 14:51:48;;;;;;;2.83;2.20;;;2.10;99.90;;;;;;20878459;28;21862;-48
2024/02/27 15:01:50;;;;;;;0.80;0.80;;;2.20;99.90;;;;;;20877541;28;20814;-50
2024/02/27 15:11:54;;;;;;;0.47;0.25;;;2.20;99.90;;;;;;20878988;28;20127;-48
2024/02/27 15:21:56;;;;;;;10.02;2.97;;;2.30;99.90;;;;;;20876152;28;20138;-47
2024/02/27 15:31:58;;;;;;;62.92;12.60;;;2.30;99.90;;;;;;20873446;28;20110;-48
2024/02/27 15:42:03;;;;;;;13.15;6.18;;;2.40;99.90;;;;;;20873820;28;20170;-48
2024/02/27 15:52:05;;;;;;;0.00;0.00;;;2.40;99.90;;;;;;20854621;28;21245;-48
2024/02/27 16:02:07;;;;;;;6.93;4.80;;;2.30;99.90;;;;;;20874167;28;20174;-47
2024/02/27 16:12:09;;;;;;;3.90;2.45;;;2.20;99.90;;;;;;20874239;28;20131;-46
2024/02/27 16:22:11;;;;;;;1.10;0.95;;;2.20;99.90;;;;;;20877098;28;21244;-49
2024/02/27 16:32:13;;;;;;;0.00;0.00;;;2.10;99.90;;;;;;20871621;28;21224;-49
2024/02/27 16:42:19;;;;;;;0.00;0.00;;;2.10;99.90;;;;;;20872616;28;20076;-47
2024/02/27 16:52:22;;;;;;;0.00;0.00;;;2.20;99.90;;;;;;20869452;28;20063;-48
2024/02/27 17:02:24;;;;;;;0.00;0.00;;;2.20;99.90;;;;;;20872989;28;20059;-46
2024/02/27 17:12:26;;;;;;;0.68;0.68;;;2.40;99.90;;;;;;20870624;28;20063;-46
2024/02/27 17:22:28;;;;;;;0.30;0.08;;;2.30;99.90;;;;;;20851782;28;21268;-45
2024/02/27 17:32:37;;;;;;;0.00;0.00;;;2.30;99.90;;;;;;20870955;28;20067;-46
2024/02/27 17:42:39;;;;;;;0.00;0.00;;;2.30;99.90;;;;;;20870293;28;20956;-45
2024/02/27 17:52:41;;;;;;;0.00;0.00;;;2.40;99.90;;;;;;20870853;28;20213;-46
2024/02/27 18:02:43;;;;;;;69.72;10.85;;;2.40;99.90;;;;;;20872437;28;20130;-46
2024/02/27 18:12:48;;;;;;;0.00;0.00;;;2.60;99.90;;;;;;20858950;28;20140;-45
2024/02/27 18:22:50;;;;;;;0.00;0.00;;;2.60;99.90;;;;;;20887439;28;20063;-45
2024/02/27 18:32:55;;;;;;;0.00;0.00;;;2.70;99.90;;;;;;20868631;28;20668;-45
2024/02/27 18:42:58;;;;;;;0.00;0.00;;;2.50;99.90;;;;;;20885836;28;20134;-44
2024/02/27 18:53:05;;;;;;;0.00;0.00;;;2.60;99.90;;;;;;20881511;28;21322;-47
2024/02/27 19:03:07;;;;;;;0.00;0.00;;;2.70;99.90;;;;;;20883589;28;20071;-49
2024/02/27 19:13:09;;;;;;;0.00;0.00;;;2.70;99.90;;;;;;20883222;28;20070;-45
2024/02/27 19:23:11;;;;;;;426.58;60.05;;;2.70;99.90;;;;;;20881963;28;20222;-40
2024/02/27 19:33:13;;;;;;;0.00;0.00;;;2.60;99.90;;;;;;20877512;28;20115;-40
2024/02/27 19:43:15;;;;;;;0.00;0.00;;;2.60;99.90;;;;;;20881982;28;20160;-40
2024/02/27 19:53:18;;;;;;;0.00;0.00;;;2.70;99.90;;;;;;20878381;28;20698;-40
2024/02/27 20:03:20;;;;;;;0.47;0.38;;;2.70;99.90;;;;;;20880953;28;20063;-39
2024/02/27 20:13:23;;;;;;;0.00;0.00;;;2.60;99.90;;;;;;20879279;28;21119;-41
2024/02/27 20:23:25;;;;;;;0.00;0.00;;;2.70;99.90;;;;;;20878653;28;20139;-40
2024/02/27 20:33:30;;;;;;;120.07;11.63;;;2.70;99.90;;;;;;20874659;28;20178;-40
2024/02/27 20:43:32;;;;;;;0.00;0.00;;;2.70;99.90;;;;;;20875517;28;21288;-39
2024/02/27 20:53:35;;;;;;;0.00;0.00;;;2.70;99.90;;;;;;20876214;28;20197;-40
2024/02/27 21:03:42;;;;;;;0.00;0.00;;;2.70;99.90;;;;;;20874193;28;20627;-40
2024/02/27 21:13:45;;;;;;;0.00;0.00;;;2.80;99.90;;;;;;20874803;28;21723;-40
2024/02/27 21:23:47;;;;;;;0.00;0.00;;;2.70;99.90;;;;;;20870307;28;20126;-41
2024/02/27 21:33:49;;;;;;;0.00;0.00;;;2.80;99.90;;;;;;20871977;28;20188;-41
2024/02/27 21:43:54;;;;;;;0.20;0.00;;;2.70;99.90;;;;;;20869125;28;20178;-45
2024/02/27 21:53:59;;;;;;;0.00;0.00;;;2.60;99.90;;;;;;20868405;28;20162;-40
2024/02/27 22:04:05;;;;;;;0.17;0.05;;;2.80;99.90;;;;;;20871003;28;21079;-42
2024/02/27 22:14:07;;;;;;;0.10;0.00;;;2.80;99.90;;;;;;20872285;28;20060;-41
2024/02/27 22:24:09;;;;;;;0.15;0.15;;;2.90;99.90;;;;;;20871317;28;20154;-40
2024/02/27 22:34:11;;;;;;;0.55;0.55;;;2.90;99.90;;;;;;20871992;28;20096;-40
2024/02/27 22:44:13;;;;;;;0.17;0.10;;;2.80;99.90;;;;;;20869893;28;20104;-40
2024/02/27 22:54:15;;;;;;;0.00;0.00;;;2.80;99.90;;;;;;20873907;28;20106;-40
2024/02/27 23:04:18;;;;;;;0.10;0.00;;;2.80;99.90;;;;;;20885979;28;20079;-41
2024/02/27 23:14:20;;;;;;;0.10;0.00;;;2.80;99.90;;;;;;20881491;28;20500;-40
2024/02/27 23:24:22;;;;;;;0.10;0.00;;;2.80;99.90;;;;;;20884536;28;21150;-40
2024/02/27 23:34:24;;;;;;;0.00;0.00;;;2.90;99.90;;;;;;20884329;28;20094;-42
2024/02/27 23:44:25;;;;;;;82.00;14.50;;;2.90;99.90;;;;;;20881737;28;20236;-40
2024/02/27 23:54:27;;;;;;;0.17;0.00;;;2.70;99.90;;;;;;20881129;28;20088;-42
